sensor_id;sensor_type;location;lat;lon;timestamp;P1;durP1;ratioP1;P2;durP2;ratioP2
51995;SDS011;38010;53.264;6.592;2023-01-16T00:00:59;1.05;;;0.60;;
51995;SDS011;38010;53.264;6.592;2023-01-16T00:03:26;0.90;;;0.50;;
51995;SDS011;38010;53.264;6.592;2023-01-16T00:05:52;0.93;;;0.50;;
51995;SDS011;38010;53.264;6.592;2023-01-16T00:08:17;0.82;;;0.50;;
51995;SDS011;38010;53.264;6.592;2023-01-16T00:10:44;0.65;;;0.55;;
51995;SDS011;38010;53.264;6.592;2023-01-16T00:13:10;0.52;;;0.43;;
51995;SDS011;38010;53.264;6.592;2023-01-16T00:15:37;0.55;;;0.50;;
51995;SDS011;38010;53.264;6.592;2023-01-16T00:18:03;0.60;;;0.40;;
51995;SDS011;38010;53.264;6.592;2023-01-16T00:20:29;0.80;;;0.60;;
51995;SDS011;38010;53.264;6.592;2023-01-16T00:22:54;1.02;;;0.70;;
51995;SDS011;38010;53.264;6.592;2023-01-16T00:25:20;0.85;;;0.60;;
51995;SDS011;38010;53.264;6.592;2023-01-16T00:27:46;1.17;;;0.50;;
51995;SDS011;38010;53.264;6.592;2023-01-16T00:30:12;0.70;;;0.50;;
51995;SDS011;38010;53.264;6.592;2023-01-16T00:32:37;1.05;;;0.50;;
51995;SDS011;38010;53.264;6.592;2023-01-16T00:35:04;0.55;;;0.50;;
51995;SDS011;38010;53.264;6.592;2023-01-16T00:37:30;1.85;;;0.60;;
51995;SDS011;38010;53.264;6.592;2023-01-16T00:39:56;0.57;;;0.52;;
51995;SDS011;38010;53.264;6.592;2023-01-16T00:42:21;1.23;;;0.60;;
51995;SDS011;38010;53.264;6.592;2023-01-16T00:44:47;0.75;;;0.60;;
51995;SDS011;38010;53.264;6.592;2023-01-16T00:47:13;0.50;;;0.50;;
51995;SDS011;38010;53.264;6.592;2023-01-16T00:49:38;1.02;;;0.40;;
51995;SDS011;38010;53.264;6.592;2023-01-16T00:52:04;0.30;;;0.30;;
51995;SDS011;38010;53.264;6.592;2023-01-16T00:54:30;1.13;;;0.52;;
51995;SDS011;38010;53.264;6.592;2023-01-16T00:56:55;0.60;;;0.60;;
51995;SDS011;38010;53.264;6.592;2023-01-16T00:59:21;0.68;;;0.40;;
51995;SDS011;38010;53.264;6.592;2023-01-16T01:01:47;0.57;;;0.50;;
51995;SDS011;38010;53.264;6.592;2023-01-16T01:04:13;0.40;;;0.40;;
51995;SDS011;38010;53.264;6.592;2023-01-16T01:06:39;0.80;;;0.50;;
51995;SDS011;38010;53.264;6.592;2023-01-16T01:09:05;0.73;;;0.57;;
51995;SDS011;38010;53.264;6.592;2023-01-16T01:11:31;0.63;;;0.55;;
51995;SDS011;38010;53.264;6.592;2023-01-16T01:13:56;0.50;;;0.50;;
51995;SDS011;38010;53.264;6.592;2023-01-16T01:16:22;0.75;;;0.50;;
51995;SDS011;38010;53.264;6.592;2023-01-16T01:18:48;0.65;;;0.50;;
51995;SDS011;38010;53.264;6.592;2023-01-16T01:21:15;1.17;;;0.60;;
51995;SDS011;38010;53.264;6.592;2023-01-16T01:23:40;1.88;;;0.60;;
51995;SDS011;38010;53.264;6.592;2023-01-16T01:26:11;1.52;;;0.60;;
51995;SDS011;38010;53.264;6.592;2023-01-16T01:28:38;0.88;;;0.50;;
51995;SDS011;38010;53.264;6.592;2023-01-16T01:31:08;1.05;;;0.60;;
51995;SDS011;38010;53.264;6.592;2023-01-16T01:33:36;0.73;;;0.57;;
51995;SDS011;38010;53.264;6.592;2023-01-16T01:36:02;0.82;;;0.50;;
51995;SDS011;38010;53.264;6.592;2023-01-16T01:38:29;0.80;;;0.47;;
51995;SDS011;38010;53.264;6.592;2023-01-16T01:40:55;1.23;;;0.52;;
51995;SDS011;38010;53.264;6.592;2023-01-16T01:43:21;1.25;;;0.50;;
51995;SDS011;38010;53.264;6.592;2023-01-16T01:45:48;0.75;;;0.50;;
51995;SDS011;38010;53.264;6.592;2023-01-16T01:51:05;1.05;;;0.50;;
51995;SDS011;38010;53.264;6.592;2023-01-16T01:53:41;0.98;;;0.50;;
51995;SDS011;38010;53.264;6.592;2023-01-16T01:56:13;0.80;;;0.45;;
51995;SDS011;38010;53.264;6.592;2023-01-16T01:58:53;1.48;;;0.57;;
51995;SDS011;38010;53.264;6.592;2023-01-16T02:01:21;0.95;;;0.50;;
51995;SDS011;38010;53.264;6.592;2023-01-16T02:03:55;0.73;;;0.50;;
51995;SDS011;38010;53.264;6.592;2023-01-16T02:06:42;0.73;;;0.70;;
51995;SDS011;38010;53.264;6.592;2023-01-16T02:09:20;0.82;;;0.50;;
51995;SDS011;38010;53.264;6.592;2023-01-16T02:12:04;0.40;;;0.40;;
51995;SDS011;38010;53.264;6.592;2023-01-16T02:14:34;0.50;;;0.50;;
51995;SDS011;38010;53.264;6.592;2023-01-16T02:17:04;0.52;;;0.50;;
51995;SDS011;38010;53.264;6.592;2023-01-16T02:20:06;1.05;;;0.50;;
51995;SDS011;38010;53.264;6.592;2023-01-16T02:31:46;1.13;;;0.50;;
51995;SDS011;38010;53.264;6.592;2023-01-16T02:36:59;1.70;;;0.57;;
51995;SDS011;38010;53.264;6.592;2023-01-16T02:42:27;1.27;;;0.40;;
51995;SDS011;38010;53.264;6.592;2023-01-16T02:53:41;1.05;;;0.50;;
51995;SDS011;38010;53.264;6.592;2023-01-16T02:56:24;1.67;;;0.60;;
51995;SDS011;38010;53.264;6.592;2023-01-16T02:58:56;1.10;;;0.63;;
51995;SDS011;38010;53.264;6.592;2023-01-16T03:01:23;0.63;;;0.50;;
51995;SDS011;38010;53.264;6.592;2023-01-16T03:17:13;0.30;;;0.30;;
51995;SDS011;38010;53.264;6.592;2023-01-16T03:19:58;0.93;;;0.50;;
51995;SDS011;38010;53.264;6.592;2023-01-16T03:22:43;0.65;;;0.40;;
51995;SDS011;38010;53.264;6.592;2023-01-16T03:25:15;0.40;;;0.40;;
51995;SDS011;38010;53.264;6.592;2023-01-16T03:33:42;1.27;;;0.50;;
51995;SDS011;38010;53.264;6.592;2023-01-16T03:36:33;0.73;;;0.50;;
51995;SDS011;38010;53.264;6.592;2023-01-16T03:39:03;0.77;;;0.50;;
51995;SDS011;38010;53.264;6.592;2023-01-16T03:41:33;0.40;;;0.40;;
51995;SDS011;38010;53.264;6.592;2023-01-16T03:44:04;0.52;;;0.40;;
51995;SDS011;38010;53.264;6.592;2023-01-16T03:46:37;1.20;;;0.70;;
51995;SDS011;38010;53.264;6.592;2023-01-16T03:49:09;1.10;;;0.60;;
51995;SDS011;38010;53.264;6.592;2023-01-16T03:51:43;0.35;;;0.35;;
51995;SDS011;38010;53.264;6.592;2023-01-16T03:54:37;0.85;;;0.68;;
51995;SDS011;38010;53.264;6.592;2023-01-16T03:59:44;0.52;;;0.50;;
51995;SDS011;38010;53.264;6.592;2023-01-16T04:02:13;1.23;;;0.60;;
51995;SDS011;38010;53.264;6.592;2023-01-16T04:07:44;0.73;;;0.50;;
51995;SDS011;38010;53.264;6.592;2023-01-16T04:10:20;0.47;;;0.47;;
51995;SDS011;38010;53.264;6.592;2023-01-16T04:12:50;0.80;;;0.50;;
51995;SDS011;38010;53.264;6.592;2023-01-16T04:15:20;0.40;;;0.40;;
51995;SDS011;38010;53.264;6.592;2023-01-16T04:17:48;0.82;;;0.43;;
51995;SDS011;38010;53.264;6.592;2023-01-16T04:20:14;1.33;;;0.40;;
51995;SDS011;38010;53.264;6.592;2023-01-16T04:22:41;1.60;;;0.50;;
51995;SDS011;38010;53.264;6.592;2023-01-16T04:25:11;1.00;;;0.50;;
51995;SDS011;38010;53.264;6.592;2023-01-16T04:27:37;0.55;;;0.45;;
51995;SDS011;38010;53.264;6.592;2023-01-16T04:30:03;0.60;;;0.50;;
51995;SDS011;38010;53.264;6.592;2023-01-16T04:32:29;0.50;;;0.50;;
51995;SDS011;38010;53.264;6.592;2023-01-16T04:34:55;0.63;;;0.40;;
51995;SDS011;38010;53.264;6.592;2023-01-16T04:37:20;0.70;;;0.57;;
51995;SDS011;38010;53.264;6.592;2023-01-16T04:39:46;0.40;;;0.40;;
51995;SDS011;38010;53.264;6.592;2023-01-16T04:42:12;1.17;;;0.50;;
51995;SDS011;38010;53.264;6.592;2023-01-16T04:44:38;0.57;;;0.45;;
51995;SDS011;38010;53.264;6.592;2023-01-16T04:47:04;0.98;;;0.60;;
51995;SDS011;38010;53.264;6.592;2023-01-16T04:49:30;0.77;;;0.50;;
51995;SDS011;38010;53.264;6.592;2023-01-16T04:51:56;1.20;;;0.47;;
51995;SDS011;38010;53.264;6.592;2023-01-16T04:54:21;0.47;;;0.43;;
51995;SDS011;38010;53.264;6.592;2023-01-16T04:56:47;0.75;;;0.50;;
51995;SDS011;38010;53.264;6.592;2023-01-16T04:59:13;0.57;;;0.57;;
51995;SDS011;38010;53.264;6.592;2023-01-16T05:01:39;0.82;;;0.50;;
51995;SDS011;38010;53.264;6.592;2023-01-16T05:04:06;0.77;;;0.47;;
51995;SDS011;38010;53.264;6.592;2023-01-16T05:06:33;1.15;;;0.55;;
51995;SDS011;38010;53.264;6.592;2023-01-16T05:09:00;0.68;;;0.50;;
51995;SDS011;38010;53.264;6.592;2023-01-16T05:11:26;1.00;;;0.60;;
51995;SDS011;38010;53.264;6.592;2023-01-16T05:13:52;1.00;;;0.60;;
51995;SDS011;38010;53.264;6.592;2023-01-16T05:16:17;0.43;;;0.43;;
51995;SDS011;38010;53.264;6.592;2023-01-16T05:18:43;1.35;;;0.55;;
51995;SDS011;38010;53.264;6.592;2023-01-16T05:21:09;0.52;;;0.50;;
51995;SDS011;38010;53.264;6.592;2023-01-16T05:23:34;1.35;;;0.60;;
51995;SDS011;38010;53.264;6.592;2023-01-16T05:26:02;0.60;;;0.50;;
51995;SDS011;38010;53.264;6.592;2023-01-16T05:28:29;0.93;;;0.60;;
51995;SDS011;38010;53.264;6.592;2023-01-16T05:30:55;1.23;;;0.50;;
51995;SDS011;38010;53.264;6.592;2023-01-16T05:33:21;0.57;;;0.47;;
51995;SDS011;38010;53.264;6.592;2023-01-16T05:35:47;0.80;;;0.60;;
51995;SDS011;38010;53.264;6.592;2023-01-16T05:38:13;1.75;;;0.63;;
51995;SDS011;38010;53.264;6.592;2023-01-16T05:40:39;0.55;;;0.40;;
51995;SDS011;38010;53.264;6.592;2023-01-16T05:43:06;0.60;;;0.60;;
51995;SDS011;38010;53.264;6.592;2023-01-16T05:45:32;1.00;;;0.50;;
51995;SDS011;38010;53.264;6.592;2023-01-16T05:47:58;1.08;;;0.68;;
51995;SDS011;38010;53.264;6.592;2023-01-16T05:50:24;1.42;;;0.60;;
51995;SDS011;38010;53.264;6.592;2023-01-16T05:52:49;0.70;;;0.40;;
51995;SDS011;38010;53.264;6.592;2023-01-16T05:55:15;0.55;;;0.47;;
51995;SDS011;38010;53.264;6.592;2023-01-16T05:57:41;0.50;;;0.50;;
51995;SDS011;38010;53.264;6.592;2023-01-16T06:00:07;1.00;;;0.60;;
51995;SDS011;38010;53.264;6.592;2023-01-16T06:02:34;1.35;;;0.50;;
51995;SDS011;38010;53.264;6.592;2023-01-16T06:05:00;0.90;;;0.50;;
51995;SDS011;38010;53.264;6.592;2023-01-16T06:07:31;1.15;;;0.50;;
51995;SDS011;38010;53.264;6.592;2023-01-16T06:09:57;0.98;;;0.50;;
51995;SDS011;38010;53.264;6.592;2023-01-16T06:12:23;0.68;;;0.50;;
51995;SDS011;38010;53.264;6.592;2023-01-16T06:14:49;1.30;;;0.60;;
51995;SDS011;38010;53.264;6.592;2023-01-16T06:17:15;0.77;;;0.50;;
51995;SDS011;38010;53.264;6.592;2023-01-16T06:19:42;1.33;;;0.80;;
51995;SDS011;38010;53.264;6.592;2023-01-16T06:22:09;0.52;;;0.50;;
51995;SDS011;38010;53.264;6.592;2023-01-16T06:24:35;0.60;;;0.60;;
51995;SDS011;38010;53.264;6.592;2023-01-16T06:27:00;1.05;;;0.70;;
51995;SDS011;38010;53.264;6.592;2023-01-16T06:29:26;0.73;;;0.50;;
51995;SDS011;38010;53.264;6.592;2023-01-16T06:31:52;0.75;;;0.45;;
51995;SDS011;38010;53.264;6.592;2023-01-16T06:34:17;0.82;;;0.60;;
51995;SDS011;38010;53.264;6.592;2023-01-16T06:36:43;1.00;;;0.50;;
51995;SDS011;38010;53.264;6.592;2023-01-16T06:39:11;1.40;;;0.60;;
51995;SDS011;38010;53.264;6.592;2023-01-16T06:41:37;1.20;;;0.70;;
51995;SDS011;38010;53.264;6.592;2023-01-16T06:44:03;1.20;;;0.60;;
51995;SDS011;38010;53.264;6.592;2023-01-16T06:46:29;0.82;;;0.60;;
51995;SDS011;38010;53.264;6.592;2023-01-16T06:48:54;0.70;;;0.70;;
51995;SDS011;38010;53.264;6.592;2023-01-16T06:51:20;3.40;;;0.90;;
51995;SDS011;38010;53.264;6.592;2023-01-16T06:53:46;2.47;;;0.88;;
51995;SDS011;38010;53.264;6.592;2023-01-16T06:56:11;7.70;;;0.90;;
51995;SDS011;38010;53.264;6.592;2023-01-16T06:58:37;4.82;;;0.85;;
51995;SDS011;38010;53.264;6.592;2023-01-16T07:01:03;4.00;;;1.10;;
51995;SDS011;38010;53.264;6.592;2023-01-16T07:03:29;2.33;;;0.80;;
51995;SDS011;38010;53.264;6.592;2023-01-16T07:05:55;1.85;;;1.10;;
51995;SDS011;38010;53.264;6.592;2023-01-16T07:08:21;1.95;;;1.00;;
51995;SDS011;38010;53.264;6.592;2023-01-16T07:10:47;2.85;;;0.85;;
51995;SDS011;38010;53.264;6.592;2023-01-16T07:13:12;3.05;;;0.90;;
51995;SDS011;38010;53.264;6.592;2023-01-16T07:15:38;2.75;;;1.27;;
51995;SDS011;38010;53.264;6.592;2023-01-16T07:18:28;1.80;;;1.10;;
51995;SDS011;38010;53.264;6.592;2023-01-16T07:21:13;1.45;;;1.00;;
51995;SDS011;38010;53.264;6.592;2023-01-16T07:24:02;2.58;;;0.90;;
51995;SDS011;38010;53.264;6.592;2023-01-16T07:26:30;1.73;;;0.90;;
51995;SDS011;38010;53.264;6.592;2023-01-16T07:28:57;1.85;;;1.25;;
51995;SDS011;38010;53.264;6.592;2023-01-16T07:31:23;1.65;;;1.05;;
51995;SDS011;38010;53.264;6.592;2023-01-16T07:33:50;1.13;;;0.90;;
51995;SDS011;38010;53.264;6.592;2023-01-16T07:36:16;1.55;;;0.90;;
51995;SDS011;38010;53.264;6.592;2023-01-16T07:38:42;1.58;;;1.00;;
51995;SDS011;38010;53.264;6.592;2023-01-16T07:41:07;1.50;;;0.98;;
51995;SDS011;38010;53.264;6.592;2023-01-16T07:43:33;2.08;;;0.90;;
51995;SDS011;38010;53.264;6.592;2023-01-16T07:45:59;1.45;;;0.90;;
51995;SDS011;38010;53.264;6.592;2023-01-16T07:48:25;1.90;;;1.20;;
51995;SDS011;38010;53.264;6.592;2023-01-16T07:50:52;2.05;;;0.93;;
51995;SDS011;38010;53.264;6.592;2023-01-16T07:53:20;1.48;;;0.65;;
51995;SDS011;38010;53.264;6.592;2023-01-16T07:55:50;1.33;;;0.88;;
51995;SDS011;38010;53.264;6.592;2023-01-16T07:58:18;1.73;;;1.08;;
51995;SDS011;38010;53.264;6.592;2023-01-16T08:00:44;2.30;;;1.00;;
51995;SDS011;38010;53.264;6.592;2023-01-16T08:03:10;3.47;;;1.10;;
51995;SDS011;38010;53.264;6.592;2023-01-16T08:05:37;1.38;;;0.90;;
51995;SDS011;38010;53.264;6.592;2023-01-16T08:08:03;3.45;;;1.20;;
51995;SDS011;38010;53.264;6.592;2023-01-16T08:10:29;1.83;;;0.90;;
51995;SDS011;38010;53.264;6.592;2023-01-16T08:12:54;2.42;;;0.90;;
51995;SDS011;38010;53.264;6.592;2023-01-16T08:15:20;2.33;;;1.15;;
51995;SDS011;38010;53.264;6.592;2023-01-16T08:17:46;1.73;;;1.00;;
51995;SDS011;38010;53.264;6.592;2023-01-16T08:20:12;1.95;;;1.00;;
51995;SDS011;38010;53.264;6.592;2023-01-16T08:22:44;2.63;;;1.10;;
51995;SDS011;38010;53.264;6.592;2023-01-16T08:25:12;1.55;;;1.10;;
51995;SDS011;38010;53.264;6.592;2023-01-16T08:27:39;1.15;;;1.00;;
51995;SDS011;38010;53.264;6.592;2023-01-16T08:30:05;1.58;;;0.95;;
51995;SDS011;38010;53.264;6.592;2023-01-16T08:32:31;2.10;;;1.10;;
51995;SDS011;38010;53.264;6.592;2023-01-16T08:34:57;2.33;;;1.25;;
51995;SDS011;38010;53.264;6.592;2023-01-16T08:37:23;2.53;;;1.20;;
51995;SDS011;38010;53.264;6.592;2023-01-16T08:39:49;1.20;;;1.00;;
51995;SDS011;38010;53.264;6.592;2023-01-16T08:42:14;2.05;;;1.25;;
51995;SDS011;38010;53.264;6.592;2023-01-16T08:45:20;1.52;;;1.00;;
51995;SDS011;38010;53.264;6.592;2023-01-16T08:48:04;1.30;;;0.90;;
51995;SDS011;38010;53.264;6.592;2023-01-16T08:50:51;1.42;;;1.00;;
51995;SDS011;38010;53.264;6.592;2023-01-16T08:53:37;2.17;;;1.10;;
51995;SDS011;38010;53.264;6.592;2023-01-16T08:56:02;2.08;;;1.17;;
51995;SDS011;38010;53.264;6.592;2023-01-16T08:58:28;1.92;;;1.00;;
51995;SDS011;38010;53.264;6.592;2023-01-16T09:00:55;2.22;;;1.00;;
51995;SDS011;38010;53.264;6.592;2023-01-16T09:03:21;2.03;;;1.00;;
51995;SDS011;38010;53.264;6.592;2023-01-16T09:05:47;1.42;;;1.00;;
51995;SDS011;38010;53.264;6.592;2023-01-16T09:08:12;2.17;;;1.00;;
51995;SDS011;38010;53.264;6.592;2023-01-16T09:10:38;1.35;;;0.98;;
51995;SDS011;38010;53.264;6.592;2023-01-16T09:13:04;1.95;;;1.17;;
51995;SDS011;38010;53.264;6.592;2023-01-16T09:15:48;1.85;;;1.00;;
51995;SDS011;38010;53.264;6.592;2023-01-16T09:18:14;1.75;;;0.80;;
51995;SDS011;38010;53.264;6.592;2023-01-16T09:20:40;1.77;;;0.80;;
51995;SDS011;38010;53.264;6.592;2023-01-16T09:23:05;1.90;;;1.10;;
51995;SDS011;38010;53.264;6.592;2023-01-16T09:25:32;2.13;;;0.90;;
51995;SDS011;38010;53.264;6.592;2023-01-16T09:27:58;2.67;;;0.80;;
51995;SDS011;38010;53.264;6.592;2023-01-16T09:30:25;2.13;;;0.90;;
51995;SDS011;38010;53.264;6.592;2023-01-16T09:32:52;1.95;;;1.02;;
51995;SDS011;38010;53.264;6.592;2023-01-16T09:35:18;2.25;;;1.08;;
51995;SDS011;38010;53.264;6.592;2023-01-16T09:37:44;1.92;;;0.95;;
51995;SDS011;38010;53.264;6.592;2023-01-16T09:40:14;1.20;;;0.60;;
51995;SDS011;38010;53.264;6.592;2023-01-16T09:43:08;2.13;;;0.90;;
51995;SDS011;38010;53.264;6.592;2023-01-16T09:45:47;1.48;;;0.80;;
51995;SDS011;38010;53.264;6.592;2023-01-16T09:48:16;1.30;;;0.93;;
51995;SDS011;38010;53.264;6.592;2023-01-16T09:50:50;1.77;;;0.82;;
51995;SDS011;38010;53.264;6.592;2023-01-16T09:53:22;0.98;;;0.75;;
51995;SDS011;38010;53.264;6.592;2023-01-16T09:56:16;0.63;;;0.60;;
51995;SDS011;38010;53.264;6.592;2023-01-16T09:59:24;1.80;;;0.70;;
51995;SDS011;38010;53.264;6.592;2023-01-16T10:04:57;1.67;;;0.68;;
51995;SDS011;38010;53.264;6.592;2023-01-16T10:21:51;1.80;;;0.90;;
51995;SDS011;38010;53.264;6.592;2023-01-16T10:27:25;0.77;;;0.60;;
51995;SDS011;38010;53.264;6.592;2023-01-16T10:30:10;1.15;;;0.60;;
51995;SDS011;38010;53.264;6.592;2023-01-16T10:37:43;0.77;;;0.50;;
51995;SDS011;38010;53.264;6.592;2023-01-16T10:40:13;0.65;;;0.55;;
51995;SDS011;38010;53.264;6.592;2023-01-16T10:42:43;1.25;;;0.60;;
51995;SDS011;38010;53.264;6.592;2023-01-16T10:45:31;2.50;;;0.70;;
51995;SDS011;38010;53.264;6.592;2023-01-16T10:48:19;1.42;;;0.80;;
51995;SDS011;38010;53.264;6.592;2023-01-16T10:51:04;0.85;;;0.65;;
51995;SDS011;38010;53.264;6.592;2023-01-16T10:53:31;0.88;;;0.60;;
51995;SDS011;38010;53.264;6.592;2023-01-16T10:55:59;1.63;;;0.60;;
51995;SDS011;38010;53.264;6.592;2023-01-16T10:58:27;0.68;;;0.60;;
51995;SDS011;38010;53.264;6.592;2023-01-16T11:01:00;0.77;;;0.63;;
51995;SDS011;38010;53.264;6.592;2023-01-16T11:03:34;1.30;;;0.73;;
51995;SDS011;38010;53.264;6.592;2023-01-16T11:06:08;1.00;;;0.70;;
51995;SDS011;38010;53.264;6.592;2023-01-16T11:08:43;1.20;;;0.70;;
51995;SDS011;38010;53.264;6.592;2023-01-16T11:11:24;1.20;;;0.70;;
51995;SDS011;38010;53.264;6.592;2023-01-16T11:20:26;1.35;;;0.70;;
51995;SDS011;38010;53.264;6.592;2023-01-16T11:22:56;1.00;;;0.60;;
51995;SDS011;38010;53.264;6.592;2023-01-16T11:25:24;1.02;;;0.50;;
51995;SDS011;38010;53.264;6.592;2023-01-16T11:27:52;0.75;;;0.55;;
51995;SDS011;38010;53.264;6.592;2023-01-16T11:30:33;0.47;;;0.40;;
51995;SDS011;38010;53.264;6.592;2023-01-16T11:33:03;0.60;;;0.50;;
51995;SDS011;38010;53.264;6.592;2023-01-16T11:35:36;1.00;;;0.40;;
51995;SDS011;38010;53.264;6.592;2023-01-16T11:38:02;0.85;;;0.40;;
51995;SDS011;38010;53.264;6.592;2023-01-16T11:40:36;0.98;;;0.47;;
51995;SDS011;38010;53.264;6.592;2023-01-16T11:43:13;0.40;;;0.40;;
51995;SDS011;38010;53.264;6.592;2023-01-16T11:46:01;1.17;;;0.57;;
51995;SDS011;38010;53.264;6.592;2023-01-16T11:48:33;0.43;;;0.40;;
51995;SDS011;38010;53.264;6.592;2023-01-16T11:51:02;0.68;;;0.47;;
51995;SDS011;38010;53.264;6.592;2023-01-16T11:53:29;1.25;;;0.50;;
51995;SDS011;38010;53.264;6.592;2023-01-16T12:05:35;0.93;;;0.50;;
51995;SDS011;38010;53.264;6.592;2023-01-16T12:07:58;0.50;;;0.40;;
51995;SDS011;38010;53.264;6.592;2023-01-16T12:10:35;0.32;;;0.32;;
51995;SDS011;38010;53.264;6.592;2023-01-16T12:13:09;1.25;;;0.60;;
51995;SDS011;38010;53.264;6.592;2023-01-16T12:15:59;0.40;;;0.40;;
51995;SDS011;38010;53.264;6.592;2023-01-16T12:27:13;0.50;;;0.40;;
51995;SDS011;38010;53.264;6.592;2023-01-16T12:35:46;0.60;;;0.40;;
51995;SDS011;38010;53.264;6.592;2023-01-16T12:38:19;0.45;;;0.30;;
51995;SDS011;38010;53.264;6.592;2023-01-16T12:44:21;0.73;;;0.40;;
51995;SDS011;38010;53.264;6.592;2023-01-16T12:55:12;0.75;;;0.40;;
51995;SDS011;38010;53.264;6.592;2023-01-16T13:00:17;0.52;;;0.30;;
51995;SDS011;38010;53.264;6.592;2023-01-16T13:03:02;0.30;;;0.30;;
51995;SDS011;38010;53.264;6.592;2023-01-16T13:05:40;0.65;;;0.40;;
51995;SDS011;38010;53.264;6.592;2023-01-16T13:08:18;0.60;;;0.40;;
51995;SDS011;38010;53.264;6.592;2023-01-16T13:11:01;0.60;;;0.40;;
51995;SDS011;38010;53.264;6.592;2023-01-16T13:13:57;0.35;;;0.35;;
51995;SDS011;38010;53.264;6.592;2023-01-16T13:16:29;1.23;;;0.30;;
51995;SDS011;38010;53.264;6.592;2023-01-16T13:19:00;0.40;;;0.32;;
51995;SDS011;38010;53.264;6.592;2023-01-16T13:21:52;1.27;;;0.40;;
51995;SDS011;38010;53.264;6.592;2023-01-16T13:24:28;1.23;;;0.50;;
51995;SDS011;38010;53.264;6.592;2023-01-16T13:26:58;0.32;;;0.32;;
51995;SDS011;38010;53.264;6.592;2023-01-16T13:31:59;0.75;;;0.45;;
51995;SDS011;38010;53.264;6.592;2023-01-16T13:34:48;0.30;;;0.30;;
51995;SDS011;38010;53.264;6.592;2023-01-16T13:42:50;0.40;;;0.30;;
51995;SDS011;38010;53.264;6.592;2023-01-16T13:45:30;0.40;;;0.32;;
51995;SDS011;38010;53.264;6.592;2023-01-16T13:48:19;0.73;;;0.50;;
51995;SDS011;38010;53.264;6.592;2023-01-16T13:50:58;0.75;;;0.40;;
51995;SDS011;38010;53.264;6.592;2023-01-16T13:53:27;0.35;;;0.35;;
51995;SDS011;38010;53.264;6.592;2023-01-16T13:58:39;0.45;;;0.45;;
51995;SDS011;38010;53.264;6.592;2023-01-16T14:01:28;0.75;;;0.55;;
51995;SDS011;38010;53.264;6.592;2023-01-16T14:06:49;0.35;;;0.35;;
51995;SDS011;38010;53.264;6.592;2023-01-16T14:09:58;0.30;;;0.30;;
51995;SDS011;38010;53.264;6.592;2023-01-16T14:16:08;0.70;;;0.50;;
51995;SDS011;38010;53.264;6.592;2023-01-16T14:18:40;0.80;;;0.40;;
51995;SDS011;38010;53.264;6.592;2023-01-16T14:21:42;0.30;;;0.30;;
51995;SDS011;38010;53.264;6.592;2023-01-16T14:24:23;1.20;;;0.40;;
51995;SDS011;38010;53.264;6.592;2023-01-16T14:26:52;0.90;;;0.50;;
51995;SDS011;38010;53.264;6.592;2023-01-16T14:32:04;0.80;;;0.50;;
51995;SDS011;38010;53.264;6.592;2023-01-16T14:34:46;0.55;;;0.47;;
51995;SDS011;38010;53.264;6.592;2023-01-16T14:37:19;1.05;;;0.40;;
51995;SDS011;38010;53.264;6.592;2023-01-16T14:39:57;1.63;;;0.65;;
51995;SDS011;38010;53.264;6.592;2023-01-16T14:45:37;0.50;;;0.40;;
51995;SDS011;38010;53.264;6.592;2023-01-16T14:53:56;1.08;;;0.50;;
51995;SDS011;38010;53.264;6.592;2023-01-16T14:56:48;0.85;;;0.60;;
51995;SDS011;38010;53.264;6.592;2023-01-16T14:59:33;0.73;;;0.50;;
51995;SDS011;38010;53.264;6.592;2023-01-16T15:02:23;1.23;;;0.50;;
51995;SDS011;38010;53.264;6.592;2023-01-16T15:04:59;0.82;;;0.50;;
51995;SDS011;38010;53.264;6.592;2023-01-16T15:07:36;1.08;;;0.50;;
51995;SDS011;38010;53.264;6.592;2023-01-16T15:10:10;1.40;;;0.45;;
51995;SDS011;38010;53.264;6.592;2023-01-16T15:12:41;0.80;;;0.40;;
51995;SDS011;38010;53.264;6.592;2023-01-16T15:15:24;1.23;;;0.50;;
51995;SDS011;38010;53.264;6.592;2023-01-16T15:17:57;1.05;;;0.43;;
51995;SDS011;38010;53.264;6.592;2023-01-16T15:20:43;0.40;;;0.40;;
51995;SDS011;38010;53.264;6.592;2023-01-16T15:31:15;2.17;;;0.52;;
51995;SDS011;38010;53.264;6.592;2023-01-16T15:33:42;1.25;;;0.68;;
51995;SDS011;38010;53.264;6.592;2023-01-16T15:36:25;1.27;;;0.40;;
51995;SDS011;38010;53.264;6.592;2023-01-16T15:39:18;1.45;;;0.50;;
51995;SDS011;38010;53.264;6.592;2023-01-16T15:44:42;0.38;;;0.38;;
51995;SDS011;38010;53.264;6.592;2023-01-16T15:47:35;0.50;;;0.50;;
51995;SDS011;38010;53.264;6.592;2023-01-16T15:53:09;0.95;;;0.50;;
51995;SDS011;38010;53.264;6.592;2023-01-16T15:55:39;1.30;;;0.70;;
51995;SDS011;38010;53.264;6.592;2023-01-16T15:58:25;1.60;;;0.43;;
51995;SDS011;38010;53.264;6.592;2023-01-16T16:00:55;0.95;;;0.70;;
51995;SDS011;38010;53.264;6.592;2023-01-16T16:03:30;0.65;;;0.50;;
51995;SDS011;38010;53.264;6.592;2023-01-16T16:06:05;0.45;;;0.40;;
51995;SDS011;38010;53.264;6.592;2023-01-16T16:08:37;1.45;;;0.50;;
51995;SDS011;38010;53.264;6.592;2023-01-16T16:11:08;0.75;;;0.47;;
51995;SDS011;38010;53.264;6.592;2023-01-16T16:14:11;1.23;;;0.50;;
51995;SDS011;38010;53.264;6.592;2023-01-16T16:22:51;0.70;;;0.60;;
51995;SDS011;38010;53.264;6.592;2023-01-16T16:25:26;0.60;;;0.43;;
51995;SDS011;38010;53.264;6.592;2023-01-16T16:27:57;0.85;;;0.50;;
51995;SDS011;38010;53.264;6.592;2023-01-16T16:30:24;0.40;;;0.40;;
51995;SDS011;38010;53.264;6.592;2023-01-16T16:32:52;1.48;;;0.50;;
51995;SDS011;38010;53.264;6.592;2023-01-16T16:35:20;0.55;;;0.50;;
51995;SDS011;38010;53.264;6.592;2023-01-16T16:37:49;0.80;;;0.60;;
51995;SDS011;38010;53.264;6.592;2023-01-16T16:40:15;1.20;;;0.52;;
51995;SDS011;38010;53.264;6.592;2023-01-16T16:47:40;0.50;;;0.50;;
51995;SDS011;38010;53.264;6.592;2023-01-16T16:53:11;1.00;;;0.65;;
51995;SDS011;38010;53.264;6.592;2023-01-16T16:55:46;0.90;;;0.60;;
51995;SDS011;38010;53.264;6.592;2023-01-16T16:58:18;1.13;;;0.73;;
51995;SDS011;38010;53.264;6.592;2023-01-16T17:00:49;1.17;;;1.00;;
51995;SDS011;38010;53.264;6.592;2023-01-16T17:03:18;1.33;;;0.98;;
51995;SDS011;38010;53.264;6.592;2023-01-16T17:05:46;1.85;;;0.90;;
51995;SDS011;38010;53.264;6.592;2023-01-16T17:08:20;1.27;;;0.73;;
51995;SDS011;38010;53.264;6.592;2023-01-16T17:10:53;1.77;;;1.00;;
51995;SDS011;38010;53.264;6.592;2023-01-16T17:13:20;1.83;;;0.80;;
51995;SDS011;38010;53.264;6.592;2023-01-16T17:15:47;1.65;;;0.90;;
51995;SDS011;38010;53.264;6.592;2023-01-16T17:18:15;1.40;;;0.98;;
51995;SDS011;38010;53.264;6.592;2023-01-16T17:20:42;0.95;;;0.73;;
51995;SDS011;38010;53.264;6.592;2023-01-16T17:23:11;1.65;;;0.80;;
51995;SDS011;38010;53.264;6.592;2023-01-16T17:25:39;1.95;;;0.90;;
51995;SDS011;38010;53.264;6.592;2023-01-16T17:28:05;1.20;;;1.00;;
51995;SDS011;38010;53.264;6.592;2023-01-16T17:30:31;1.25;;;0.93;;
51995;SDS011;38010;53.264;6.592;2023-01-16T17:33:16;1.52;;;1.13;;
51995;SDS011;38010;53.264;6.592;2023-01-16T17:35:45;2.83;;;0.85;;
51995;SDS011;38010;53.264;6.592;2023-01-16T17:38:16;1.63;;;0.85;;
51995;SDS011;38010;53.264;6.592;2023-01-16T17:40:44;2.10;;;0.90;;
51995;SDS011;38010;53.264;6.592;2023-01-16T17:43:14;1.60;;;1.00;;
51995;SDS011;38010;53.264;6.592;2023-01-16T17:45:59;2.38;;;1.08;;
51995;SDS011;38010;53.264;6.592;2023-01-16T17:48:28;1.63;;;1.10;;
51995;SDS011;38010;53.264;6.592;2023-01-16T17:50:55;1.60;;;0.90;;
51995;SDS011;38010;53.264;6.592;2023-01-16T17:53:24;1.45;;;0.98;;
51995;SDS011;38010;53.264;6.592;2023-01-16T17:55:52;2.92;;;1.00;;
51995;SDS011;38010;53.264;6.592;2023-01-16T17:58:25;1.73;;;0.85;;
51995;SDS011;38010;53.264;6.592;2023-01-16T18:01:05;2.20;;;0.90;;
51995;SDS011;38010;53.264;6.592;2023-01-16T18:03:33;1.67;;;0.95;;
51995;SDS011;38010;53.264;6.592;2023-01-16T18:05:59;1.45;;;1.00;;
51995;SDS011;38010;53.264;6.592;2023-01-16T18:08:29;1.13;;;0.90;;
51995;SDS011;38010;53.264;6.592;2023-01-16T18:10:58;1.63;;;1.00;;